Time;durP1;ratioP1;P1;durP2;ratioP2;P2;SDS_P1;SDS_P2;PMS_P1;PMS_P2;Temp;Humidity;BMP_temperature;BMP_pressure;BME280_temperature;BME280_humidity;BME280_pressure;Samples;Min_cycle;Max_cycle;Signal;HPM_P1;HPM_P2
2023/01/05 00:01:35;;;;;;;1.60;1.17;;;11.60;99.90;;;;;;5022443;28;20188;-67
2023/01/05 00:04:00;;;;;;;1.70;1.20;;;11.60;99.90;;;;;;5016605;28;20255;-67
2023/01/05 00:06:26;;;;;;;1.73;1.17;;;11.70;99.90;;;;;;5015112;28;20214;-67
2023/01/05 00:08:52;;;;;;;1.87;1.20;;;11.70;99.90;;;;;;5018348;28;20217;-67
2023/01/05 00:22:30;;;;;;;1.57;1.20;;;11.50;99.90;;;;;;5017447;28;20629;-67
2023/01/05 00:25:10;;;;;;;2.00;1.13;;;11.50;99.90;;;;;;5022956;28;20522;-67
2023/01/05 00:27:36;;;;;;;2.00;1.30;;;11.50;99.90;;;;;;5017768;28;20643;-66
2023/01/05 00:30:03;;;;;;;2.00;1.40;;;11.50;99.90;;;;;;5021554;28;20438;-67
2023/01/05 00:32:28;;;;;;;2.00;1.20;;;11.60;99.90;;;;;;5017915;28;20777;-67
2023/01/05 00:34:55;;;;;;;1.80;1.13;;;11.50;99.90;;;;;;5016137;28;20427;-67
2023/01/05 00:37:25;;;;;;;1.70;1.10;;;11.50;99.90;;;;;;5016180;28;20206;-67
2023/01/05 00:39:51;;;;;;;1.47;1.00;;;11.60;99.90;;;;;;5013976;28;20432;-67
2023/01/05 00:42:18;;;;;;;2.10;1.10;;;11.60;99.90;;;;;;5020594;28;20431;-67
2023/01/05 00:44:44;;;;;;;2.80;1.40;;;11.60;99.90;;;;;;5018453;28;20496;-67
2023/01/05 00:47:09;;;;;;;1.73;1.30;;;11.70;99.90;;;;;;5018862;28;20493;-67
2023/01/05 00:49:35;;;;;;;1.47;1.00;;;11.70;99.90;;;;;;5016279;28;20189;-67
2023/01/05 00:52:01;;;;;;;1.70;1.17;;;11.70;99.90;;;;;;5018544;28;20212;-67
2023/01/05 00:54:26;;;;;;;1.70;1.03;;;11.60;99.90;;;;;;5011508;28;20195;-67
2023/01/05 00:56:52;;;;;;;3.10;1.00;;;11.60;99.90;;;;;;5013139;28;20206;-67
2023/01/05 00:59:18;;;;;;;2.10;1.30;;;11.70;99.90;;;;;;5013199;28;20184;-67
2023/01/05 01:01:48;;;;;;;2.13;1.20;;;11.70;99.90;;;;;;5017412;28;20188;-67
2023/01/05 01:04:14;;;;;;;2.63;1.20;;;11.70;99.90;;;;;;5016495;28;20884;-67
2023/01/05 01:06:39;;;;;;;1.50;1.07;;;11.70;99.90;;;;;;5016843;28;21029;-67
2023/01/05 01:09:05;;;;;;;1.73;1.20;;;11.60;99.90;;;;;;5015519;28;20216;-66
2023/01/05 01:11:31;;;;;;;1.60;1.10;;;11.60;99.90;;;;;;5020431;28;20434;-66
2023/01/05 01:13:56;;;;;;;1.90;1.20;;;11.70;99.90;;;;;;5020930;28;20311;-67
2023/01/05 01:16:22;;;;;;;1.60;1.20;;;11.60;99.90;;;;;;5018275;28;20208;-67
2023/01/05 01:18:48;;;;;;;1.50;1.10;;;11.50;99.90;;;;;;5014201;28;20185;-66
2023/01/05 01:21:14;;;;;;;2.53;1.10;;;11.50;99.90;;;;;;5015270;28;20322;-67
2023/01/05 01:23:40;;;;;;;1.70;1.13;;;11.50;99.90;;;;;;5019960;28;20425;-66
2023/01/05 01:26:07;;;;;;;1.50;0.97;;;11.50;99.90;;;;;;5016336;28;20986;-67
2023/01/05 01:28:33;;;;;;;1.40;1.00;;;11.50;99.90;;;;;;5015916;28;20202;-67
2023/01/05 01:30:59;;;;;;;2.67;1.20;;;11.50;99.90;;;;;;5018747;28;20438;-66
2023/01/05 01:33:24;;;;;;;1.60;1.07;;;11.50;99.90;;;;;;5019577;28;20423;-66
2023/01/05 01:35:50;;;;;;;1.77;1.10;;;11.60;99.90;;;;;;5018557;28;20311;-66
2023/01/05 01:38:16;;;;;;;1.40;1.00;;;11.60;99.90;;;;;;5021110;28;20836;-66
2023/01/05 01:40:44;;;;;;;1.77;1.10;;;11.60;99.90;;;;;;5016244;28;20185;-66
2023/01/05 01:43:15;;;;;;;2.23;2.03;;;11.60;99.90;;;;;;5016873;28;22515;-66
2023/01/05 01:45:41;;;;;;;1.50;1.00;;;11.70;99.90;;;;;;5013481;28;20470;-66
2023/01/05 01:48:11;;;;;;;1.50;1.10;;;11.70;99.90;;;;;;5018561;28;20450;-66
2023/01/05 01:50:42;;;;;;;1.40;1.00;;;11.70;99.90;;;;;;5015305;28;20439;-67
2023/01/05 01:53:17;;;;;;;3.63;1.10;;;11.70;99.90;;;;;;5014785;28;20407;-67
2023/01/05 01:55:43;;;;;;;1.60;1.00;;;11.80;99.90;;;;;;5013072;28;20511;-66
2023/01/05 01:58:13;;;;;;;3.00;1.10;;;11.80;99.90;;;;;;5015426;28;20841;-66
2023/01/05 02:00:40;;;;;;;1.57;1.00;;;11.80;99.90;;;;;;5014051;28;20448;-67
2023/01/05 02:03:05;;;;;;;1.70;1.10;;;11.80;99.90;;;;;;5012303;28;20437;-66
2023/01/05 02:05:33;;;;;;;1.80;1.10;;;11.80;99.90;;;;;;5017315;28;20455;-67
2023/01/05 02:07:59;;;;;;;2.90;1.30;;;11.90;99.90;;;;;;5014461;28;21770;-67
2023/01/05 02:10:30;;;;;;;1.43;0.97;;;11.90;99.90;;;;;;5022855;28;20442;-68
2023/01/05 02:13:27;;;;;;;1.50;1.00;;;11.90;99.90;;;;;;5014699;28;20184;-68
2023/01/05 02:16:10;;;;;;;1.50;0.90;;;11.90;99.90;;;;;;5019182;28;20509;-67
2023/01/05 02:18:44;;;;;;;1.90;1.00;;;11.80;99.90;;;;;;5015068;28;20471;-68
2023/01/05 02:21:20;;;;;;;1.50;1.00;;;11.90;99.90;;;;;;5016089;28;20791;-67
2023/01/05 02:24:29;;;;;;;1.50;1.00;;;11.90;99.90;;;;;;5010463;28;20831;-68
2023/01/05 02:27:21;;;;;;;1.50;1.00;;;12.00;99.90;;;;;;5008564;28;20440;-67
2023/01/05 02:29:50;;;;;;;1.30;0.80;;;12.00;99.90;;;;;;5019632;28;20415;-67
2023/01/05 02:32:21;;;;;;;1.40;0.90;;;12.00;99.90;;;;;;5014617;28;20944;-66
2023/01/05 02:35:14;;;;;;;1.63;1.10;;;11.90;99.90;;;;;;5016668;28;20423;-67
2023/01/05 02:37:49;;;;;;;1.50;1.20;;;11.90;99.90;;;;;;5013806;28;20813;-67
2023/01/05 02:40:30;;;;;;;1.80;1.17;;;11.90;99.90;;;;;;5015024;28;20434;-67
2023/01/05 02:42:56;;;;;;;2.47;1.10;;;11.80;99.90;;;;;;5015498;28;20429;-67
2023/01/05 02:45:23;;;;;;;1.90;1.10;;;11.70;99.90;;;;;;5017368;28;20466;-67
2023/01/05 02:47:50;;;;;;;1.43;1.10;;;11.70;99.90;;;;;;5016016;28;20442;-67
2023/01/05 02:50:27;;;;;;;1.87;1.03;;;11.70;99.90;;;;;;5015649;28;20447;-67
2023/01/05 02:53:10;;;;;;;1.40;1.00;;;11.70;99.90;;;;;;5015840;28;20543;-66
2023/01/05 02:55:45;;;;;;;1.50;1.10;;;11.70;99.90;;;;;;5016751;28;20465;-67
2023/01/05 02:58:30;;;;;;;3.00;1.10;;;11.70;99.90;;;;;;5009849;28;21815;-67
2023/01/05 03:00:59;;;;;;;1.90;1.10;;;11.70;99.90;;;;;;5016351;28;20443;-67
2023/01/05 03:03:52;;;;;;;1.50;1.00;;;11.70;99.90;;;;;;5010721;28;20446;-67
2023/01/05 03:06:45;;;;;;;1.93;1.10;;;11.70;99.90;;;;;;5009777;28;20459;-67
2023/01/05 03:09:18;;;;;;;1.60;1.00;;;11.60;99.90;;;;;;5011872;28;20451;-67
2023/01/05 03:14:58;;;;;;;1.50;1.00;;;11.70;99.90;;;;;;5020983;28;20849;-67
2023/01/05 03:17:46;;;;;;;2.27;1.10;;;11.70;99.90;;;;;;5013128;28;20559;-67
2023/01/05 03:20:14;;;;;;;1.40;1.03;;;11.70;99.90;;;;;;5016502;28;20443;-68
2023/01/05 03:37:13;;;;;;;2.47;1.20;;;11.60;99.90;;;;;;5010923;28;20922;-67
2023/01/05 03:39:42;;;;;;;1.40;1.10;;;11.60;99.90;;;;;;5024002;28;20512;-67
2023/01/05 03:42:09;;;;;;;5.20;2.40;;;11.50;99.90;;;;;;5015999;28;20967;-68
2023/01/05 03:44:37;;;;;;;1.60;1.00;;;11.60;99.90;;;;;;5021889;28;20462;-68
2023/01/05 03:47:03;;;;;;;1.43;1.03;;;11.50;99.90;;;;;;5019212;28;20507;-68
2023/01/05 03:49:28;;;;;;;1.30;0.90;;;11.50;99.90;;;;;;5016325;28;20431;-68
2023/01/05 03:51:54;;;;;;;1.60;1.10;;;11.50;99.90;;;;;;5021747;28;20204;-68
2023/01/05 03:54:19;;;;;;;1.50;1.00;;;11.50;99.90;;;;;;5020867;28;20694;-67
2023/01/05 03:56:45;;;;;;;2.07;1.20;;;11.50;99.90;;;;;;5019728;28;20204;-67
2023/01/05 03:59:11;;;;;;;1.40;0.97;;;11.50;99.90;;;;;;5015440;28;20276;-67
2023/01/05 04:01:36;;;;;;;1.40;1.00;;;11.50;99.90;;;;;;5019018;28;20219;-67
2023/01/05 04:04:02;;;;;;;1.50;1.20;;;11.50;99.90;;;;;;5018483;28;20212;-67
2023/01/05 04:06:27;;;;;;;2.57;1.20;;;11.50;99.90;;;;;;5017206;28;20213;-67
2023/01/05 04:08:53;;;;;;;1.60;1.10;;;11.60;99.90;;;;;;5014195;28;20313;-67
2023/01/05 04:11:20;;;;;;;1.50;1.00;;;11.60;99.90;;;;;;5018481;28;20641;-67
2023/01/05 04:13:46;;;;;;;2.27;1.00;;;11.60;99.90;;;;;;5016024;28;20181;-67
2023/01/05 04:16:12;;;;;;;1.43;1.10;;;11.60;99.90;;;;;;5018201;28;20950;-67
2023/01/05 04:18:37;;;;;;;1.90;1.00;;;11.60;99.90;;;;;;5019368;28;21241;-67
2023/01/05 04:21:03;;;;;;;1.80;1.17;;;11.60;99.90;;;;;;5017131;28;20371;-67
2023/01/05 04:23:29;;;;;;;1.77;1.10;;;11.60;99.90;;;;;;5020373;28;20188;-68
2023/01/05 04:25:54;;;;;;;1.70;1.10;;;11.60;99.90;;;;;;5018322;28;20585;-66
2023/01/05 04:28:20;;;;;;;1.80;1.10;;;11.60;99.90;;;;;;5014545;28;20188;-67
2023/01/05 04:30:49;;;;;;;3.00;1.53;;;11.70;99.90;;;;;;5020826;28;20458;-66
2023/01/05 04:33:15;;;;;;;2.27;1.20;;;11.70;99.90;;;;;;5017972;28;20189;-66
2023/01/05 04:35:40;;;;;;;1.63;1.20;;;11.70;99.90;;;;;;5015914;28;20471;-67
2023/01/05 04:38:06;;;;;;;1.60;1.03;;;11.70;99.90;;;;;;5016537;28;20193;-68
2023/01/05 04:40:31;;;;;;;1.60;1.00;;;11.70;99.90;;;;;;5019103;28;20204;-67
2023/01/05 04:42:57;;;;;;;1.50;1.10;;;11.80;99.90;;;;;;5015414;28;20185;-67
2023/01/05 04:45:23;;;;;;;2.13;1.30;;;11.80;99.90;;;;;;5014308;28;20299;-66
2023/01/05 04:47:50;;;;;;;2.07;1.20;;;11.80;99.90;;;;;;5017637;28;20173;-67
2023/01/05 04:50:16;;;;;;;3.40;1.30;;;11.70;99.90;;;;;;5020231;28;20192;-67
2023/01/05 04:52:42;;;;;;;5.47;1.40;;;11.80;99.90;;;;;;5019363;28;20481;-67
2023/01/05 04:55:08;;;;;;;1.60;1.10;;;11.90;99.90;;;;;;5015997;28;20447;-67
2023/01/05 04:57:33;;;;;;;2.00;1.13;;;11.90;99.90;;;;;;5014660;28;20208;-67
2023/01/05 04:59:59;;;;;;;1.50;0.97;;;11.90;99.90;;;;;;5015136;28;20439;-68
2023/01/05 05:02:25;;;;;;;1.70;1.30;;;12.00;99.90;;;;;;5016324;28;20201;-67
2023/01/05 05:04:51;;;;;;;4.33;1.10;;;12.00;99.90;;;;;;5017744;28;20519;-67
2023/01/05 05:07:16;;;;;;;1.50;1.00;;;12.00;99.90;;;;;;5014528;28;20205;-67
2023/01/05 05:09:42;;;;;;;2.80;1.83;;;12.00;99.90;;;;;;5020979;28;20211;-67
2023/01/05 05:12:08;;;;;;;2.03;1.00;;;12.00;99.90;;;;;;5019261;28;20185;-67
2023/01/05 05:14:33;;;;;;;1.63;1.23;;;12.00;99.90;;;;;;5017029;28;20185;-66
2023/01/05 05:16:59;;;;;;;3.47;1.20;;;12.10;99.90;;;;;;5016281;28;20617;-66
2023/01/05 05:19:25;;;;;;;1.80;1.10;;;12.00;99.90;;;;;;5017078;28;20266;-66
2023/01/05 05:21:50;;;;;;;2.43;1.17;;;12.00;99.90;;;;;;5017863;28;20204;-67
2023/01/05 05:24:16;;;;;;;2.17;1.97;;;12.00;99.90;;;;;;5024436;28;20216;-67
2023/01/05 05:26:41;;;;;;;2.50;1.10;;;12.00;99.90;;;;;;5020850;28;20212;-66
2023/01/05 05:29:07;;;;;;;1.77;1.20;;;12.00;99.90;;;;;;5017612;28;20188;-66
2023/01/05 05:31:33;;;;;;;2.53;1.30;;;12.10;99.90;;;;;;5017477;28;20185;-67
2023/01/05 05:33:58;;;;;;;2.03;1.27;;;12.10;99.90;;;;;;5018675;28;20642;-67
2023/01/05 05:36:24;;;;;;;2.60;1.30;;;12.10;99.90;;;;;;5021568;28;20208;-67
2023/01/05 05:38:49;;;;;;;2.47;1.37;;;12.10;99.90;;;;;;5016152;28;20565;-67
2023/01/05 05:41:15;;;;;;;4.70;1.30;;;12.10;99.90;;;;;;5017987;28;20716;-67
2023/01/05 05:43:41;;;;;;;3.27;1.33;;;12.10;99.90;;;;;;5018673;28;20181;-67
2023/01/05 05:46:06;;;;;;;4.90;2.40;;;12.10;99.90;;;;;;5018872;28;20216;-67
2023/01/05 05:48:32;;;;;;;2.23;1.00;;;12.00;99.90;;;;;;5011332;28;20561;-67
2023/01/05 05:50:57;;;;;;;5.53;1.30;;;12.10;99.90;;;;;;5014369;28;20322;-67
2023/01/05 05:53:23;;;;;;;4.73;1.30;;;12.10;99.90;;;;;;5010072;28;20888;-67
2023/01/05 05:55:50;;;;;;;2.40;1.50;;;12.20;99.90;;;;;;5018683;28;20212;-67
2023/01/05 05:58:19;;;;;;;3.90;1.40;;;12.20;99.90;;;;;;5012525;28;20855;-67
2023/01/05 06:00:45;;;;;;;2.20;1.60;;;12.30;99.90;;;;;;5021846;28;20813;-67
2023/01/05 06:03:11;;;;;;;6.03;1.60;;;12.30;99.90;;;;;;5018805;28;20435;-67
2023/01/05 06:05:37;;;;;;;1.80;1.30;;;12.30;99.90;;;;;;5018124;28;20467;-67
2023/01/05 06:08:02;;;;;;;4.00;1.37;;;12.30;99.90;;;;;;5016080;28;20187;-67
2023/01/05 06:10:28;;;;;;;2.33;1.23;;;12.40;99.90;;;;;;5017641;28;20189;-67
2023/01/05 06:12:54;;;;;;;1.80;1.10;;;12.40;99.90;;;;;;5015827;28;20266;-67
2023/01/05 06:15:21;;;;;;;2.00;1.20;;;12.40;99.90;;;;;;5016942;28;20200;-67
2023/01/05 06:17:47;;;;;;;2.27;1.17;;;12.30;99.90;;;;;;5013311;28;20943;-67
2023/01/05 06:20:15;;;;;;;2.60;2.23;;;12.30;99.90;;;;;;5014094;28;20817;-67
2023/01/05 06:22:41;;;;;;;1.73;1.10;;;12.30;99.90;;;;;;5018119;28;20442;-66
2023/01/05 06:25:07;;;;;;;1.60;1.20;;;12.30;99.90;;;;;;5017502;28;20761;-67
2023/01/05 06:27:33;;;;;;;1.60;1.30;;;12.30;99.90;;;;;;5005366;28;21090;-66
2023/01/05 06:29:58;;;;;;;2.53;1.40;;;12.40;99.90;;;;;;5013754;28;20539;-67
2023/01/05 06:32:24;;;;;;;2.70;1.60;;;12.40;99.90;;;;;;5010212;28;20219;-66
2023/01/05 06:34:50;;;;;;;1.80;1.37;;;12.40;99.90;;;;;;5014553;28;20184;-66
2023/01/05 06:37:16;;;;;;;3.73;1.20;;;12.40;99.90;;;;;;5010050;28;20328;-66
2023/01/05 06:39:41;;;;;;;2.53;1.50;;;12.40;99.90;;;;;;5014866;28;20181;-66
2023/01/05 06:42:07;;;;;;;2.07;1.60;;;12.30;99.90;;;;;;5011605;28;20473;-66
2023/01/05 06:44:32;;;;;;;1.83;1.30;;;12.30;99.90;;;;;;5014324;28;20221;-67
2023/01/05 06:46:58;;;;;;;2.43;1.40;;;12.30;99.90;;;;;;5009480;28;20211;-66
2023/01/05 06:49:24;;;;;;;2.07;1.77;;;12.30;99.90;;;;;;5012403;28;20187;-66
2023/01/05 06:51:50;;;;;;;5.40;1.73;;;12.30;99.90;;;;;;5017428;28;20230;-66
2023/01/05 06:54:15;;;;;;;2.60;1.40;;;12.40;99.90;;;;;;5018260;28;20485;-66
2023/01/05 06:56:41;;;;;;;1.80;1.23;;;12.40;99.90;;;;;;5014905;28;20478;-67
2023/01/05 06:59:06;;;;;;;3.03;1.30;;;12.40;99.90;;;;;;5017100;28;20188;-66
2023/01/05 07:01:32;;;;;;;2.50;1.30;;;12.30;99.90;;;;;;5012567;28;20458;-66
2023/01/05 07:03:58;;;;;;;1.87;1.40;;;12.40;99.90;;;;;;5017776;28;20192;-66
2023/01/05 07:06:23;;;;;;;2.47;1.30;;;12.30;99.90;;;;;;5012528;28;20233;-66
2023/01/05 07:08:49;;;;;;;3.53;1.60;;;12.30;99.90;;;;;;5010864;28;20206;-65
2023/01/05 07:11:14;;;;;;;1.90;1.40;;;12.30;99.90;;;;;;5012898;28;20655;-66
2023/01/05 07:13:40;;;;;;;2.20;1.50;;;12.40;99.90;;;;;;5005391;28;20582;-67
2023/01/05 07:16:06;;;;;;;2.10;1.60;;;12.30;99.90;;;;;;5004713;28;20295;-67
2023/01/05 07:18:31;;;;;;;2.63;1.50;;;12.30;99.90;;;;;;5003711;28;20192;-67
2023/01/05 07:21:00;;;;;;;2.00;1.60;;;12.30;99.90;;;;;;5012402;28;20268;-67
2023/01/05 07:23:25;;;;;;;2.17;1.30;;;12.40;99.90;;;;;;5015502;28;20223;-67
2023/01/05 07:25:51;;;;;;;1.97;1.60;;;12.30;99.90;;;;;;5013857;28;20845;-67
2023/01/05 07:28:16;;;;;;;2.43;1.67;;;12.40;99.90;;;;;;5015631;28;20286;-67
2023/01/05 07:30:42;;;;;;;2.23;1.50;;;12.30;99.90;;;;;;5005822;28;20210;-66
2023/01/05 07:33:08;;;;;;;3.50;1.60;;;12.30;99.90;;;;;;5002697;28;20263;-66
2023/01/05 07:35:33;;;;;;;3.70;1.67;;;12.30;99.90;;;;;;5008284;28;20329;-67
2023/01/05 07:37:59;;;;;;;2.40;1.40;;;12.30;99.90;;;;;;5011475;28;20752;-66
2023/01/05 07:40:24;;;;;;;1.80;1.40;;;12.30;99.90;;;;;;5016537;28;20227;-66
2023/01/05 07:42:53;;;;;;;1.97;1.50;;;12.30;99.90;;;;;;5009869;28;20534;-66
2023/01/05 07:45:20;;;;;;;1.97;1.37;;;12.20;99.90;;;;;;5014779;28;20216;-65
2023/01/05 07:47:45;;;;;;;3.87;1.60;;;12.20;99.90;;;;;;5001332;28;20435;-66
2023/01/05 07:50:11;;;;;;;3.83;1.90;;;12.20;99.90;;;;;;5004329;28;21277;-65
2023/01/05 07:52:38;;;;;;;2.03;1.40;;;12.20;99.90;;;;;;5007798;28;20191;-65
2023/01/05 07:55:04;;;;;;;1.97;1.30;;;12.30;99.90;;;;;;5011371;28;20451;-65
2023/01/05 07:57:30;;;;;;;3.60;1.60;;;12.30;99.90;;;;;;5012144;28;20475;-64
2023/01/05 07:59:56;;;;;;;2.70;1.40;;;12.30;99.90;;;;;;4995901;28;21042;-66
2023/01/05 08:02:22;;;;;;;2.80;1.70;;;12.20;99.90;;;;;;5009242;28;20230;-68
2023/01/05 08:04:47;;;;;;;1.90;1.43;;;12.10;99.90;;;;;;5011991;28;20659;-66
2023/01/05 08:07:14;;;;;;;2.97;1.57;;;12.10;99.90;;;;;;5016244;28;20484;-68
2023/01/05 08:12:26;;;;;;;3.80;2.10;;;12.20;99.90;;;;;;5016738;28;21009;-67
2023/01/05 08:14:52;;;;;;;3.80;1.50;;;12.20;99.90;;;;;;5015633;28;20447;-66
2023/01/05 08:17:17;;;;;;;5.10;2.50;;;12.30;99.90;;;;;;5003245;28;20450;-66
2023/01/05 08:19:43;;;;;;;3.90;1.97;;;12.30;99.90;;;;;;5014391;28;20223;-66
2023/01/05 08:22:08;;;;;;;4.53;1.50;;;12.20;99.90;;;;;;5015464;28;20543;-66
2023/01/05 08:24:34;;;;;;;5.00;1.50;;;12.20;99.90;;;;;;5013689;28;20645;-66
2023/01/05 08:26:59;;;;;;;4.50;1.77;;;12.30;99.90;;;;;;5008047;28;20208;-66
2023/01/05 08:29:25;;;;;;;4.03;2.00;;;12.30;99.90;;;;;;5013418;28;20521;-67
2023/01/05 08:31:51;;;;;;;4.40;1.70;;;12.30;99.90;;;;;;5012745;28;20208;-66
2023/01/05 08:34:16;;;;;;;6.60;2.33;;;12.30;99.90;;;;;;5018222;28;20394;-66
2023/01/05 08:36:42;;;;;;;9.50;2.33;;;12.30;99.90;;;;;;5017198;28;20686;-66
2023/01/05 08:39:10;;;;;;;4.37;2.00;;;12.30;99.90;;;;;;5013392;28;20191;-66
2023/01/05 08:41:37;;;;;;;4.17;2.20;;;12.30;99.90;;;;;;5016225;28;20201;-66
2023/01/05 08:44:05;;;;;;;5.60;2.40;;;12.40;99.90;;;;;;5016159;28;20439;-66
2023/01/05 08:46:33;;;;;;;8.37;2.23;;;12.40;99.90;;;;;;5014411;28;20503;-66
2023/01/05 08:49:00;;;;;;;7.30;2.33;;;12.40;99.90;;;;;;5014358;28;21039;-66
2023/01/05 08:51:27;;;;;;;13.03;2.73;;;12.40;99.90;;;;;;5021850;28;20443;-65
2023/01/05 08:53:53;;;;;;;12.37;2.40;;;12.40;99.90;;;;;;5012780;28;20769;-66
2023/01/05 08:56:20;;;;;;;10.03;3.30;;;12.40;99.90;;;;;;5021067;28;20473;-66
2023/01/05 08:58:46;;;;;;;11.30;2.27;;;12.50;99.90;;;;;;5010218;28;20439;-66
2023/01/05 09:01:14;;;;;;;4.80;2.07;;;12.50;99.90;;;;;;5013901;28;21038;-66
2023/01/05 09:03:40;;;;;;;9.57;2.47;;;12.50;99.90;;;;;;5016398;28;20647;-66
2023/01/05 09:06:10;;;;;;;6.93;2.20;;;12.60;99.90;;;;;;5012585;28;20501;-66
2023/01/05 09:08:37;;;;;;;8.57;2.50;;;12.50;99.90;;;;;;5020122;28;20195;-66
2023/01/05 09:11:07;;;;;;;10.30;3.63;;;12.50;99.90;;;;;;5020724;28;20504;-69
2023/01/05 09:13:33;;;;;;;10.13;2.70;;;12.40;99.90;;;;;;5015252;28;20489;-67
2023/01/05 09:16:11;;;;;;;8.30;2.50;;;12.60;99.90;;;;;;5017204;28;20997;-66
2023/01/05 09:18:38;;;;;;;6.63;2.23;;;12.60;99.90;;;;;;5011113;28;20447;-67
2023/01/05 09:21:05;;;;;;;10.73;3.67;;;12.50;99.90;;;;;;5009475;28;20831;-66
2023/01/05 09:23:31;;;;;;;10.33;2.90;;;12.50;99.90;;;;;;5015562;28;20590;-66
2023/01/05 09:25:57;;;;;;;13.47;3.07;;;12.50;99.90;;;;;;5012972;28;20502;-67
2023/01/05 09:28:22;;;;;;;12.60;3.17;;;12.50;99.90;;;;;;5014772;28;20960;-67
2023/01/05 09:30:48;;;;;;;12.43;2.73;;;12.60;99.90;;;;;;5016249;28;20455;-67
2023/01/05 09:33:14;;;;;;;11.43;3.33;;;12.60;99.90;;;;;;5012483;28;20642;-66
2023/01/05 09:35:39;;;;;;;10.60;2.80;;;12.60;99.90;;;;;;5018682;28;20219;-67
2023/01/05 09:38:05;;;;;;;8.07;2.77;;;12.60;99.90;;;;;;5011100;28;20674;-67
2023/01/05 09:40:38;;;;;;;5.97;2.60;;;12.70;99.90;;;;;;5010769;28;20200;-69
2023/01/05 09:43:04;;;;;;;9.13;2.60;;;12.70;99.90;;;;;;5015655;28;20754;-69
2023/01/05 09:45:30;;;;;;;6.93;2.73;;;12.70;99.90;;;;;;5014434;28;20463;-69
2023/01/05 09:47:59;;;;;;;10.40;2.40;;;12.70;99.90;;;;;;5017100;28;20461;-70
2023/01/05 09:50:29;;;;;;;10.90;2.70;;;12.80;99.90;;;;;;5012265;28;20234;-70
2023/01/05 09:52:57;;;;;;;13.70;2.20;;;12.80;99.90;;;;;;5016576;28;20437;-70
2023/01/05 09:55:26;;;;;;;12.40;2.67;;;12.80;99.90;;;;;;5015780;28;20451;-70
2023/01/05 09:57:56;;;;;;;9.77;3.47;;;12.80;99.90;;;;;;5024597;28;20456;-70
2023/01/05 10:00:24;;;;;;;13.80;3.60;;;12.80;99.90;;;;;;5016029;28;20465;-70
2023/01/05 10:02:57;;;;;;;12.57;3.33;;;12.90;99.90;;;;;;5016916;28;20551;-69
2023/01/05 10:05:26;;;;;;;9.33;2.80;;;13.00;99.90;;;;;;5017517;28;20471;-70
2023/01/05 10:08:05;;;;;;;11.50;3.47;;;12.90;99.90;;;;;;5015022;28;20450;-69
2023/01/05 10:10:42;;;;;;;11.53;3.63;;;12.90;99.90;;;;;;5018730;28;20520;-68
2023/01/05 10:13:25;;;;;;;7.33;2.63;;;13.00;99.90;;;;;;5016730;28;20451;-67
2023/01/05 10:15:53;;;;;;;9.73;2.73;;;13.10;99.90;;;;;;5019257;28;20490;-67
2023/01/05 10:18:27;;;;;;;11.80;2.90;;;13.00;99.90;;;;;;5020578;28;21297;-68
2023/01/05 10:21:07;;;;;;;13.27;3.00;;;12.90;99.90;;;;;;5016976;28;20856;-69
2023/01/05 10:23:57;;;;;;;9.70;2.37;;;12.90;99.90;;;;;;5016438;28;20434;-69
2023/01/05 10:26:43;;;;;;;15.50;3.90;;;13.00;99.90;;;;;;5015271;28;20462;-69
2023/01/05 10:29:12;;;;;;;12.20;2.80;;;13.00;99.90;;;;;;5016713;28;20414;-69
2023/01/05 10:32:10;;;;;;;14.57;3.73;;;12.90;99.90;;;;;;5014533;28;20447;-69
2023/01/05 10:34:48;;;;;;;12.10;3.47;;;13.00;99.90;;;;;;5013522;28;20783;-69
2023/01/05 10:37:40;;;;;;;12.30;4.47;;;13.10;99.90;;;;;;5016828;28;20913;-69
2023/01/05 10:40:27;;;;;;;12.27;2.97;;;13.20;99.90;;;;;;5015838;28;20431;-68
2023/01/05 10:43:23;;;;;;;14.23;3.43;;;13.20;99.90;;;;;;5010221;28;20473;-70
2023/01/05 10:45:49;;;;;;;11.43;3.00;;;13.20;99.90;;;;;;5013573;28;20549;-69
2023/01/05 10:48:18;;;;;;;11.97;3.40;;;13.30;99.90;;;;;;5015553;28;21154;-70
2023/01/05 10:50:46;;;;;;;11.73;3.37;;;13.30;99.90;;;;;;5021103;28;20246;-68
2023/01/05 10:53:24;;;;;;;13.00;3.17;;;13.40;99.90;;;;;;5017924;28;20474;-68
2023/01/05 10:56:00;;;;;;;11.70;3.10;;;13.40;99.90;;;;;;5014966;28;20534;-68
2023/01/05 10:58:28;;;;;;;8.13;2.33;;;13.40;99.90;;;;;;5016751;28;20829;-69
2023/01/05 11:00:59;;;;;;;9.73;2.93;;;13.40;99.90;;;;;;5012711;28;20427;-69
2023/01/05 11:03:47;;;;;;;8.97;2.93;;;13.40;99.90;;;;;;5015886;28;20461;-67
2023/01/05 11:06:29;;;;;;;8.93;3.03;;;13.40;99.90;;;;;;5016323;28;20486;-68
2023/01/05 11:09:05;;;;;;;14.57;3.63;;;13.50;99.90;;;;;;5012617;28;20431;-68
2023/01/05 11:11:31;;;;;;;6.60;2.87;;;13.50;99.90;;;;;;5016380;28;20439;-68
2023/01/05 11:13:57;;;;;;;11.93;2.70;;;13.40;99.90;;;;;;5014326;28;21049;-67
2023/01/05 11:16:31;;;;;;;8.13;2.70;;;13.40;99.90;;;;;;5015090;28;20212;-67
2023/01/05 11:19:01;;;;;;;10.30;3.47;;;13.40;99.90;;;;;;5011244;28;20443;-67
2023/01/05 11:21:44;;;;;;;17.97;2.80;;;13.30;99.90;;;;;;5016246;28;20445;-68
2023/01/05 11:24:28;;;;;;;10.53;4.20;;;13.30;99.90;;;;;;5008852;28;20432;-68
2023/01/05 11:27:19;;;;;;;11.87;3.07;;;13.10;99.90;;;;;;5011756;28;20444;-68
2023/01/05 11:30:05;;;;;;;11.07;3.13;;;13.10;99.90;;;;;;5016383;28;20884;-68
2023/01/05 11:32:30;;;;;;;17.53;3.37;;;13.20;99.90;;;;;;5017292;28;20797;-69
2023/01/05 11:34:56;;;;;;;15.23;3.57;;;13.30;99.90;;;;;;5013550;28;20447;-69
2023/01/05 11:37:23;;;;;;;12.77;2.57;;;13.30;99.90;;;;;;4997864;28;20215;-68
2023/01/05 11:39:54;;;;;;;10.33;2.80;;;13.40;99.90;;;;;;5013620;28;20176;-68
2023/01/05 11:42:35;;;;;;;13.37;3.33;;;13.40;99.90;;;;;;5015361;28;20709;-68
2023/01/05 11:45:16;;;;;;;14.30;4.50;;;13.30;99.90;;;;;;5014378;28;20947;-68
2023/01/05 11:47:57;;;;;;;9.73;2.80;;;13.30;99.90;;;;;;5015867;28;20442;-68
2023/01/05 11:50:29;;;;;;;12.53;3.33;;;13.20;99.90;;;;;;5022563;28;20891;-68
2023/01/05 11:53:01;;;;;;;7.90;3.47;;;13.30;99.90;;;;;;5016363;28;20518;-68
2023/01/05 11:55:38;;;;;;;13.50;3.50;;;13.40;99.90;;;;;;5018147;28;20534;-68
2023/01/05 11:58:19;;;;;;;10.80;3.17;;;13.50;99.90;;;;;;5011904;28;21362;-69
2023/01/05 12:01:04;;;;;;;12.13;3.20;;;13.70;99.90;;;;;;5017735;28;20533;-68
2023/01/05 12:03:52;;;;;;;9.50;3.60;;;13.70;99.90;;;;;;5018584;28;20444;-68
2023/01/05 12:06:42;;;;;;;11.10;3.20;;;13.60;99.90;;;;;;5016482;28;20481;-71
2023/01/05 12:09:17;;;;;;;9.03;3.47;;;13.60;99.90;;;;;;5012830;28;20450;-68
2023/01/05 12:12:31;;;;;;;10.70;3.27;;;13.50;99.90;;;;;;5011722;28;20427;-70
2023/01/05 12:15:05;;;;;;;15.07;3.10;;;13.50;99.90;;;;;;5015734;28;20442;-69
2023/01/05 12:17:46;;;;;;;16.57;3.60;;;13.50;99.90;;;;;;5021887;28;21180;-67
2023/01/05 12:20:29;;;;;;;16.33;5.23;;;13.60;99.90;;;;;;5018850;28;20510;-68
2023/01/05 12:23:13;;;;;;;13.07;3.50;;;13.60;99.90;;;;;;5017519;28;20446;-67
2023/01/05 12:25:51;;;;;;;16.83;3.43;;;13.60;99.90;;;;;;5013153;28;20475;-68
2023/01/05 12:28:23;;;;;;;8.03;3.37;;;13.60;99.90;;;;;;5018973;28;20920;-68
2023/01/05 12:30:51;;;;;;;10.67;2.70;;;13.50;99.90;;;;;;5020345;28;20408;-69
2023/01/05 12:34:05;;;;;;;12.27;3.10;;;13.50;99.90;;;;;;5016043;28;20442;-68
2023/01/05 12:37:09;;;;;;;8.80;3.30;;;13.50;99.90;;;;;;5017302;28;20517;-71
2023/01/05 12:39:47;;;;;;;12.30;2.50;;;13.40;99.90;;;;;;5016625;28;20458;-71
2023/01/05 12:42:51;;;;;;;8.67;3.50;;;13.50;99.90;;;;;;5017624;28;20419;-71
2023/01/05 12:45:51;;;;;;;11.13;3.30;;;13.50;99.90;;;;;;5015323;28;20568;-70
2023/01/05 12:48:31;;;;;;;11.40;3.27;;;13.60;99.90;;;;;;5014780;28;20530;-70
2023/01/05 12:51:24;;;;;;;12.47;3.20;;;13.70;99.90;;;;;;5013280;28;20427;-71
2023/01/05 12:53:56;;;;;;;11.93;3.30;;;13.60;99.90;;;;;;5014512;28;20443;-70
2023/01/05 12:56:32;;;;;;;16.17;4.43;;;13.60;99.90;;;;;;5018507;28;20469;-70
2023/01/05 12:59:29;;;;;;;9.97;3.90;;;13.70;99.90;;;;;;5012574;28;20499;-68
2023/01/05 13:02:21;;;;;;;12.10;3.00;;;13.70;99.90;;;;;;5016714;28;20443;-69
2023/01/05 13:04:59;;;;;;;6.53;2.50;;;13.80;99.90;;;;;;5013313;28;20467;-70
2023/01/05 13:07:31;;;;;;;16.33;3.70;;;13.70;99.90;;;;;;5014034;28;20461;-70
2023/01/05 13:10:00;;;;;;;9.43;2.67;;;13.80;99.90;;;;;;5015030;28;20484;-69
2023/01/05 13:12:26;;;;;;;16.33;3.70;;;13.80;99.90;;;;;;5033455;28;20474;-69
2023/01/05 13:15:09;;;;;;;10.20;2.87;;;13.80;99.90;;;;;;5018687;28;20929;-68
2023/01/05 13:17:40;;;;;;;15.97;3.93;;;13.80;99.90;;;;;;5010630;28;20343;-69
2023/01/05 13:20:34;;;;;;;18.57;4.30;;;13.90;99.90;;;;;;5014876;28;20449;-68
2023/01/05 13:23:08;;;;;;;9.07;3.30;;;13.80;99.90;;;;;;5012807;28;20442;-67
2023/01/05 13:26:06;;;;;;;19.43;5.73;;;13.80;99.90;;;;;;5014269;28;21042;-68
2023/01/05 13:28:33;;;;;;;7.20;2.67;;;13.70;99.90;;;;;;5007673;28;20538;-69
2023/01/05 13:31:29;;;;;;;12.17;3.70;;;13.70;99.90;;;;;;5011382;28;20435;-68
2023/01/05 13:34:00;;;;;;;12.90;2.80;;;13.70;99.90;;;;;;5016339;28;20419;-68
2023/01/05 13:36:53;;;;;;;11.77;3.10;;;13.70;99.90;;;;;;5019498;28;20500;-68